CheckWX is a tool to help pilots better visualize weather data.  It is not intended as a substitute for an official pre-flight weather briefing.

17:58:15 UTC

KTTN METAR
Trenton Mercer Airport
Trenton, New Jersey, USA
Current

1 hour ago

KTTN 171653Z 27021G33KT 10SM BKN049 BKN060 14/03 A2942 RMK AO2 PK WND 26033/1652 SLP956 T01440033
Observed
Oct-17 @ 16:53 UTC
Wind
  • 270° at 21 KTS
  • Gusting to 33 KTS
Visibility
10 SM
Flight Rules
VFR
Cloud Levels
  • Broken at 4,900' AGL
  • Broken at 6,000' AGL
Temperature
14°C / 57°F
Dewpoint
C / 37°F
Humidity
48%
Altimeter
29.42" Hg
Pressure
996.32 hPa
Previous

2 hours ago

KTTN 171553Z 27013G28KT 10SM BKN046 13/04 A2942 RMK AO2 PK WND 27033/1504 RAB06E10 SLP956 P0000 T01330039
Observed
Oct-17 @ 15:53 UTC
Wind
  • 270° at 13 KTS
  • Gusting to 28 KTS
Visibility
10 SM
Flight Rules
VFR
Cloud Levels
  • Broken at 4,600' AGL
Temperature
13°C / 55°F
Dewpoint
C / 39°F
Humidity
55%
Altimeter
29.42" Hg
Pressure
996.32 hPa
Current Rain
0.01"
Previous

3 hours ago

KTTN 171453Z 27012G31KT 10SM OVC044 12/03 A2942 RMK AO2 PK WND 26033/1411 SLP957 T01170033 51009
Observed
Oct-17 @ 14:53 UTC
Wind
  • 270° at 12 KTS
  • Gusting to 31 KTS
Visibility
10 SM
Flight Rules
VFR
Cloud Levels
  • Overcast at 4,400' AGL
Temperature
12°C / 54°F
Dewpoint
C / 37°F
Humidity
54%
Altimeter
29.42" Hg
Pressure
996.32 hPa